createdAt,value
2024-01-15T00:01:24.365Z,6.43
2024-01-15T00:03:27.056Z,6.13
2024-01-15T00:05:29.953Z,5.50
2024-01-15T00:07:32.481Z,6.67
2024-01-15T00:09:35.561Z,6.77
2024-01-15T00:11:38.129Z,7.53
2024-01-15T00:13:40.965Z,7.90
2024-01-15T00:15:43.630Z,6.20
2024-01-15T00:17:47.354Z,7.30
2024-01-15T00:19:50.034Z,7.10
2024-01-15T00:21:53.110Z,6.97
2024-01-15T00:23:55.658Z,7.77
2024-01-15T00:25:58.651Z,7.00
2024-01-15T00:28:01.194Z,7.27
2024-01-15T00:30:04.392Z,7.10
2024-01-15T00:32:07.078Z,7.83
2024-01-15T00:34:10.119Z,7.53
2024-01-15T00:36:12.919Z,7.10
2024-01-15T00:38:15.811Z,6.77
2024-01-15T00:40:18.380Z,7.60
2024-01-15T00:42:21.373Z,7.40
2024-01-15T00:44:23.958Z,9.10
2024-01-15T00:46:26.777Z,6.90
2024-01-15T00:48:29.477Z,8.40
2024-01-15T00:50:32.486Z,7.07
2024-01-15T00:52:35.193Z,8.20
2024-01-15T00:54:39.129Z,7.37
2024-01-15T00:56:41.688Z,7.73
2024-01-15T00:58:44.522Z,6.90
2024-01-15T01:00:47.134Z,6.83
2024-01-15T01:02:50.249Z,6.97
2024-01-15T01:04:52.806Z,7.83
2024-01-15T01:06:55.759Z,6.70
2024-01-15T01:08:58.288Z,7.13
2024-01-15T01:11:01.674Z,7.50
2024-01-15T01:13:04.341Z,7.50
2024-01-15T01:15:07.434Z,6.97
2024-01-15T01:17:09.953Z,8.50
2024-01-15T01:19:12.595Z,7.97
2024-01-15T01:21:15.239Z,7.57
2024-01-15T01:23:18.205Z,7.90
2024-01-15T01:25:20.843Z,7.87
2024-01-15T01:27:23.786Z,7.97
2024-01-15T01:29:27.694Z,7.40
2024-01-15T01:31:30.734Z,7.87
2024-01-15T01:33:33.328Z,7.13
2024-01-15T01:35:36.237Z,8.03
2024-01-15T01:37:38.779Z,7.50
2024-01-15T01:39:41.718Z,6.90
2024-01-15T01:41:44.487Z,7.37
2024-01-15T01:43:46.886Z,7.53
2024-01-15T01:45:49.552Z,7.23
2024-01-15T01:47:52.666Z,7.23
2024-01-15T01:49:55.693Z,8.50
2024-01-15T01:51:59.496Z,7.17
2024-01-15T01:54:02.328Z,8.00
2024-01-15T01:56:05.992Z,6.87
2024-01-15T01:58:08.760Z,6.30
2024-01-15T02:00:12.157Z,6.07
2024-01-15T02:02:15.129Z,7.07
2024-01-15T02:04:22.038Z,6.97
2024-01-15T02:06:25.674Z,7.07
2024-01-15T02:08:28.725Z,6.77
2024-01-15T02:10:31.265Z,7.70
2024-01-15T02:12:34.492Z,5.73
2024-01-15T02:14:37.072Z,6.93
2024-01-15T02:16:39.989Z,7.03
2024-01-15T02:18:46.493Z,6.43
2024-01-15T02:20:49.395Z,6.40
2024-01-15T02:22:51.987Z,6.60
2024-01-15T02:24:55.252Z,6.27
2024-01-15T02:26:57.775Z,6.47
2024-01-15T02:29:00.780Z,5.30
2024-01-15T02:31:03.497Z,8.13
2024-01-15T02:33:06.680Z,6.87
2024-01-15T02:35:09.376Z,6.03
2024-01-15T02:37:12.408Z,6.60
2024-01-15T02:39:14.995Z,6.00
2024-01-15T02:41:17.806Z,5.53
2024-01-15T02:43:20.739Z,6.20
2024-01-15T02:45:23.921Z,5.70
2024-01-15T02:47:26.612Z,6.60
2024-01-15T02:49:29.729Z,6.10
2024-01-15T02:51:32.470Z,5.87
2024-01-15T02:53:35.396Z,5.97
2024-01-15T02:55:37.928Z,6.23
2024-01-15T02:57:40.889Z,5.40
2024-01-15T02:59:43.596Z,6.33
2024-01-15T03:01:46.160Z,5.50
2024-01-15T03:03:48.957Z,5.30
2024-01-15T03:05:51.899Z,5.50
2024-01-15T03:07:54.485Z,6.00
2024-01-15T03:09:57.319Z,5.43
2024-01-15T03:11:59.962Z,6.57
2024-01-15T03:14:02.880Z,5.40
2024-01-15T03:16:06.797Z,5.77
2024-01-15T03:18:10.031Z,6.13
2024-01-15T03:20:13.483Z,5.80
2024-01-15T03:22:16.354Z,6.27
2024-01-15T03:24:18.899Z,5.63
2024-01-15T03:26:21.934Z,5.23
2024-01-15T03:28:24.705Z,6.20
2024-01-15T03:30:27.594Z,5.73
2024-01-15T03:32:30.217Z,5.10
2024-01-15T03:34:33.212Z,6.03
2024-01-15T03:36:36.019Z,6.13
2024-01-15T03:38:42.039Z,4.73
2024-01-15T03:40:44.731Z,4.80
2024-01-15T03:42:47.719Z,6.47
2024-01-15T03:44:50.450Z,5.57
2024-01-15T03:46:53.549Z,5.17
2024-01-15T03:48:56.273Z,5.03
2024-01-15T03:50:59.195Z,4.60
2024-01-15T03:53:01.277Z,4.87
2024-01-15T03:55:05.591Z,4.50
2024-01-15T03:57:07.903Z,4.43
2024-01-15T03:59:10.839Z,4.37
2024-01-15T04:01:13.606Z,4.47
2024-01-15T04:03:16.742Z,4.10
2024-01-15T04:05:19.380Z,4.13
2024-01-15T04:07:22.253Z,4.83
2024-01-15T04:09:24.871Z,4.83
2024-01-15T04:11:27.769Z,4.83
2024-01-15T04:13:30.382Z,3.90
2024-01-15T04:15:33.412Z,4.20
2024-01-15T04:17:36.053Z,4.43
2024-01-15T04:19:38.970Z,3.77
2024-01-15T04:21:41.641Z,4.50
2024-01-15T04:23:44.542Z,4.03
2024-01-15T04:25:47.146Z,4.00
2024-01-15T04:27:50.125Z,3.00
2024-01-15T04:29:52.874Z,3.27
2024-01-15T04:31:55.806Z,3.77
2024-01-15T04:33:58.530Z,3.03
2024-01-15T04:36:06.641Z,4.40
2024-01-15T04:38:09.358Z,4.03
2024-01-15T04:40:12.491Z,3.13
2024-01-15T04:42:15.131Z,4.00
2024-01-15T04:44:17.965Z,4.07
2024-01-15T04:46:20.577Z,3.40
2024-01-15T04:48:24.327Z,3.10
2024-01-15T04:50:27.023Z,3.17
2024-01-15T04:52:29.878Z,3.30
2024-01-15T04:54:32.472Z,4.17
2024-01-15T04:56:35.309Z,2.60
2024-01-15T04:58:37.859Z,3.67
2024-01-15T05:00:41.015Z,3.33
2024-01-15T05:02:43.750Z,3.00
2024-01-15T05:04:46.788Z,3.27
2024-01-15T05:06:49.343Z,3.60
2024-01-15T05:08:52.133Z,3.10
2024-01-15T05:10:54.698Z,3.60
2024-01-15T05:12:57.619Z,4.13
2024-01-15T05:15:00.320Z,2.87
2024-01-15T05:17:03.260Z,3.43
2024-01-15T05:19:05.927Z,3.67
2024-01-15T05:21:08.973Z,3.57
2024-01-15T05:23:11.683Z,3.67
2024-01-15T05:25:14.511Z,3.73
2024-01-15T05:27:17.186Z,3.53
2024-01-15T05:29:20.125Z,3.63
2024-01-15T05:31:22.788Z,3.43
2024-01-15T05:33:25.879Z,3.63
2024-01-15T05:35:28.527Z,3.20
2024-01-15T05:37:31.813Z,3.73
2024-01-15T05:39:34.442Z,3.03
2024-01-15T05:41:37.314Z,3.07
2024-01-15T05:43:39.871Z,3.30
2024-01-15T05:45:45.184Z,3.23
2024-01-15T05:47:47.866Z,3.03
2024-01-15T05:49:50.949Z,3.30
2024-01-15T05:51:53.692Z,2.60
2024-01-15T05:53:56.648Z,3.47
2024-01-15T05:55:59.132Z,2.60
2024-01-15T05:58:02.025Z,2.80
2024-01-15T06:00:05.650Z,3.03
2024-01-15T06:02:08.692Z,3.20
2024-01-15T06:04:11.615Z,2.53
2024-01-15T06:06:14.588Z,2.73
2024-01-15T06:08:17.156Z,3.03
2024-01-15T06:10:20.028Z,3.10
2024-01-15T06:12:22.783Z,2.97
2024-01-15T06:14:25.665Z,3.13
2024-01-15T06:16:28.569Z,2.23
2024-01-15T06:18:31.587Z,2.97
2024-01-15T06:20:34.451Z,2.83
2024-01-15T06:22:37.804Z,3.13
2024-01-15T06:24:40.431Z,3.13
2024-01-15T06:26:43.338Z,3.00
2024-01-15T06:28:45.938Z,2.73
2024-01-15T06:30:49.358Z,2.97
2024-01-15T06:32:52.135Z,2.17
2024-01-15T06:34:55.031Z,2.33
2024-01-15T06:36:57.760Z,2.17
2024-01-15T06:39:00.637Z,2.47
2024-01-15T06:41:03.164Z,2.33
2024-01-15T06:43:06.237Z,2.67
2024-01-15T06:45:09.256Z,2.60
2024-01-15T06:47:12.202Z,1.87
2024-01-15T06:49:14.953Z,2.90
2024-01-15T06:51:18.050Z,3.23
2024-01-15T06:53:20.869Z,2.00
2024-01-15T06:55:23.876Z,2.53
2024-01-15T06:57:26.481Z,2.70
2024-01-15T06:59:29.328Z,2.33
2024-01-15T07:01:31.993Z,2.50
2024-01-15T07:03:34.967Z,2.53
2024-01-15T07:05:38.755Z,2.40
2024-01-15T07:07:41.334Z,2.20
2024-01-15T07:09:43.892Z,2.17
2024-01-15T07:11:49.801Z,2.70
2024-01-15T07:13:52.377Z,3.03
2024-01-15T07:15:55.282Z,2.73
2024-01-15T07:17:58.041Z,2.10
2024-01-15T07:20:01.140Z,2.23
2024-01-15T07:22:04.204Z,2.37
2024-01-15T07:24:07.135Z,2.30
2024-01-15T07:26:10.395Z,2.00
2024-01-15T07:28:13.326Z,2.03
2024-01-15T07:30:16.157Z,1.97
2024-01-15T07:32:19.177Z,1.97
2024-01-15T07:34:22.037Z,2.13
2024-01-15T07:36:25.010Z,2.00
2024-01-15T07:38:27.518Z,1.63
2024-01-15T07:40:30.404Z,1.77
2024-01-15T07:42:33.019Z,1.70
2024-01-15T07:44:35.837Z,2.13
2024-01-15T07:46:38.485Z,1.40
2024-01-15T07:48:41.620Z,1.87
2024-01-15T07:50:44.304Z,2.13
2024-01-15T07:52:47.560Z,2.20
2024-01-15T07:54:50.082Z,1.63
2024-01-15T07:56:56.262Z,2.07
2024-01-15T07:58:58.812Z,2.10
2024-01-15T08:01:01.711Z,2.07
2024-01-15T08:03:04.444Z,2.43
2024-01-15T08:05:07.478Z,2.60
2024-01-15T08:07:10.205Z,1.93
2024-01-15T08:09:15.200Z,2.37
2024-01-15T08:11:17.936Z,2.87
2024-01-15T08:13:21.402Z,2.37
2024-01-15T08:15:24.612Z,3.17
2024-01-15T08:17:30.026Z,2.17
2024-01-15T08:19:33.028Z,2.33
2024-01-15T08:21:36.237Z,3.40
2024-01-15T08:23:38.769Z,3.30
2024-01-15T08:25:41.625Z,3.23
2024-01-15T08:27:44.272Z,2.80
2024-01-15T08:29:47.128Z,2.87
2024-01-15T08:31:49.994Z,3.23
2024-01-15T08:33:53.184Z,2.37
2024-01-15T08:35:56.120Z,3.30
2024-01-15T08:37:59.650Z,3.10
2024-01-15T08:40:02.386Z,3.53
2024-01-15T08:42:05.494Z,2.90
2024-01-15T08:44:07.948Z,3.30
2024-01-15T08:46:10.931Z,3.30
2024-01-15T08:48:13.639Z,3.80
2024-01-15T08:50:16.220Z,3.40
2024-01-15T08:52:19.029Z,2.73
2024-01-15T08:54:22.047Z,3.05
2024-01-15T08:56:24.598Z,2.67
2024-01-15T08:58:27.490Z,2.83
2024-01-15T09:00:30.140Z,2.35
2024-01-15T09:02:32.973Z,2.45
2024-01-15T09:04:35.708Z,3.28
2024-01-15T09:06:38.650Z,2.88
2024-01-15T09:08:41.245Z,2.40
2024-01-15T09:10:44.118Z,2.78
2024-01-15T09:12:46.726Z,2.97
2024-01-15T09:14:50.691Z,2.88
2024-01-15T09:16:53.428Z,2.45
2024-01-15T09:18:58.795Z,3.42
2024-01-15T09:21:01.498Z,2.33
2024-01-15T09:23:04.503Z,2.72
2024-01-15T09:25:07.283Z,2.95
2024-01-15T09:27:10.320Z,3.00
2024-01-15T09:29:12.855Z,2.90
2024-01-15T09:31:15.969Z,3.50
2024-01-15T09:33:18.741Z,3.47
2024-01-15T09:35:23.654Z,2.75
2024-01-15T09:37:37.515Z,2.80
2024-01-15T09:39:49.500Z,3.28
2024-01-15T09:41:52.584Z,2.85
2024-01-15T09:43:55.457Z,3.00
2024-01-15T09:45:58.068Z,3.10
2024-01-15T09:48:01.083Z,3.03
2024-01-15T09:50:04.524Z,3.22
2024-01-15T09:52:11.876Z,3.65
2024-01-15T09:54:18.220Z,3.23
2024-01-15T09:56:21.356Z,3.25
2024-01-15T09:58:24.058Z,2.88
2024-01-15T10:00:27.468Z,2.80
2024-01-15T10:02:30.189Z,2.83
2024-01-15T10:04:33.140Z,2.88
2024-01-15T10:06:35.826Z,3.87
2024-01-15T10:08:40.648Z,2.85
2024-01-15T10:10:43.278Z,3.27
2024-01-15T10:12:46.379Z,3.87
2024-01-15T10:14:50.556Z,3.13
2024-01-15T10:16:53.386Z,3.07
2024-01-15T10:18:56.034Z,3.30
2024-01-15T10:20:59.037Z,3.15
2024-01-15T10:23:01.669Z,3.20
2024-01-15T10:25:04.697Z,3.67
2024-01-15T10:27:08.362Z,3.77
2024-01-15T10:29:12.055Z,3.63
2024-01-15T10:31:14.747Z,3.57
2024-01-15T10:33:24.341Z,4.55
2024-01-15T10:35:33.086Z,3.10
2024-01-15T10:37:36.028Z,3.80
2024-01-15T10:39:39.533Z,3.53
2024-01-15T10:41:42.531Z,3.10
2024-01-15T10:43:46.266Z,3.85
2024-01-15T10:45:50.469Z,3.40
2024-01-15T10:47:53.737Z,3.70
2024-01-15T10:49:56.699Z,2.97
2024-01-15T10:51:59.580Z,3.10
2024-01-15T10:54:03.108Z,2.40
2024-01-15T10:56:07.006Z,3.15
2024-01-15T10:58:10.065Z,2.78
2024-01-15T11:00:16.360Z,4.13
2024-01-15T11:02:19.838Z,2.90
2024-01-15T11:04:24.947Z,3.25
2024-01-15T11:06:30.426Z,3.37
2024-01-15T11:08:33.197Z,3.28
2024-01-15T11:10:47.881Z,3.25
2024-01-15T11:12:52.250Z,2.70
2024-01-15T11:15:05.679Z,3.50
2024-01-15T11:17:08.835Z,3.37
2024-01-15T11:19:14.225Z,3.10
2024-01-15T11:21:19.657Z,3.07
2024-01-15T11:23:52.494Z,3.50
2024-01-15T11:25:56.785Z,2.80
2024-01-15T11:27:59.634Z,3.60
2024-01-15T11:30:05.947Z,4.10
2024-01-15T11:32:09.072Z,2.90
2024-01-15T11:34:12.358Z,3.33
2024-01-15T11:36:15.389Z,2.90
2024-01-15T11:38:30.710Z,3.67
2024-01-15T11:40:39.790Z,3.07
2024-01-15T11:42:42.558Z,3.40
2024-01-15T11:44:45.890Z,3.30
2024-01-15T11:46:59.870Z,3.40
2024-01-15T11:49:07.014Z,3.97
2024-01-15T11:51:10.108Z,3.00
2024-01-15T11:53:29.254Z,2.93
2024-01-15T11:55:36.737Z,3.13
2024-01-15T11:57:49.407Z,3.30
2024-01-15T11:59:51.931Z,2.90
2024-01-15T12:01:54.930Z,3.20
2024-01-15T12:03:59.643Z,3.43
2024-01-15T12:06:02.778Z,3.17
2024-01-15T12:08:11.538Z,2.83
2024-01-15T12:10:19.997Z,3.33
2024-01-15T12:12:49.506Z,3.85
2024-01-15T12:14:52.418Z,3.20
2024-01-15T12:16:54.960Z,3.20
2024-01-15T12:18:57.596Z,2.53
2024-01-15T12:21:00.651Z,2.80
2024-01-15T12:23:13.943Z,3.30
2024-01-15T12:25:16.783Z,3.30
2024-01-15T12:27:19.443Z,3.35
2024-01-15T12:29:22.308Z,3.13
2024-01-15T12:31:25.239Z,3.13
2024-01-15T12:33:28.704Z,2.50
2024-01-15T12:35:31.455Z,3.17
2024-01-15T12:37:34.238Z,3.83
2024-01-15T12:39:36.997Z,3.07
2024-01-15T12:41:40.159Z,3.23
2024-01-15T12:43:42.734Z,2.50
2024-01-15T12:45:45.645Z,3.37
2024-01-15T12:47:48.626Z,2.90
2024-01-15T12:49:59.586Z,3.30
2024-01-15T12:52:05.441Z,3.37
2024-01-15T12:54:08.410Z,3.17
2024-01-15T12:56:10.929Z,3.00
2024-01-15T12:58:13.933Z,2.73
2024-01-15T13:00:16.888Z,2.50
2024-01-15T13:02:19.858Z,3.63
2024-01-15T13:04:26.757Z,2.70
2024-01-15T13:06:29.831Z,2.83
2024-01-15T13:08:32.466Z,3.03
2024-01-15T13:10:35.320Z,3.00
2024-01-15T13:12:39.747Z,2.40
2024-01-15T13:14:42.790Z,3.60
2024-01-15T13:16:45.406Z,3.27
2024-01-15T13:18:48.515Z,2.93
2024-01-15T13:20:51.865Z,3.00
2024-01-15T13:22:54.785Z,2.77
2024-01-15T13:24:57.432Z,2.73
2024-01-15T13:27:01.301Z,4.13
2024-01-15T13:29:05.008Z,3.53
2024-01-15T13:31:08.174Z,3.17
2024-01-15T13:33:11.108Z,3.43
2024-01-15T13:35:14.834Z,2.90
2024-01-15T13:37:17.633Z,3.00
2024-01-15T13:39:21.720Z,3.50
2024-01-15T13:41:28.332Z,3.13
2024-01-15T13:43:31.432Z,3.20
2024-01-15T13:45:35.665Z,3.07
2024-01-15T13:47:39.128Z,3.80
2024-01-15T13:49:41.790Z,3.87
2024-01-15T13:51:44.724Z,3.23
2024-01-15T13:53:47.291Z,3.10
2024-01-15T13:55:50.121Z,3.53
2024-01-15T13:57:52.719Z,3.40
2024-01-15T13:59:56.345Z,3.50
2024-01-15T14:01:59.050Z,4.60
2024-01-15T14:04:01.897Z,4.07
2024-01-15T14:06:05.626Z,3.70
2024-01-15T14:08:09.104Z,3.73
2024-01-15T14:10:12.202Z,4.20
2024-01-15T14:12:14.912Z,4.17
2024-01-15T14:14:18.384Z,3.27
2024-01-15T14:16:25.835Z,3.47
2024-01-15T14:18:32.816Z,3.27
2024-01-15T14:20:37.390Z,3.50
2024-01-15T14:22:40.285Z,4.10
2024-01-15T14:24:42.873Z,3.47
2024-01-15T14:26:45.863Z,4.10
2024-01-15T14:28:51.770Z,3.93
2024-01-15T14:30:55.177Z,3.50
2024-01-15T14:32:57.852Z,3.77
2024-01-15T14:35:01.617Z,3.57
2024-01-15T14:37:04.538Z,4.30
2024-01-15T14:39:08.093Z,3.80
2024-01-15T14:41:10.716Z,4.47
2024-01-15T14:43:13.590Z,4.50
2024-01-15T14:45:16.285Z,4.20
2024-01-15T14:47:21.640Z,4.93
2024-01-15T14:49:25.220Z,3.87
2024-01-15T14:51:28.160Z,4.03
2024-01-15T14:53:30.730Z,4.33
2024-01-15T14:55:33.613Z,4.40
2024-01-15T14:57:36.378Z,4.30
2024-01-15T14:59:39.295Z,4.47
2024-01-15T15:01:43.269Z,3.70
2024-01-15T15:03:46.461Z,4.40
2024-01-15T15:05:50.031Z,4.10
2024-01-15T15:07:53.241Z,5.27
2024-01-15T15:09:56.024Z,4.13
2024-01-15T15:11:59.084Z,4.57
2024-01-15T15:14:01.697Z,4.13
2024-01-15T15:16:04.678Z,4.50
2024-01-15T15:18:07.351Z,4.30
2024-01-15T15:20:10.844Z,4.63
2024-01-15T15:22:13.552Z,4.90
2024-01-15T15:24:16.577Z,4.63
2024-01-15T15:26:19.154Z,4.47
2024-01-15T15:28:22.157Z,5.40
2024-01-15T15:30:24.763Z,5.13
2024-01-15T15:32:27.852Z,3.87
2024-01-15T15:34:31.007Z,4.97
2024-01-15T15:36:34.025Z,4.60
2024-01-15T15:38:36.750Z,4.73
2024-01-15T15:40:39.916Z,4.50
2024-01-15T15:42:42.654Z,5.00
2024-01-15T15:44:48.653Z,4.40
2024-01-15T15:46:51.246Z,5.70
2024-01-15T15:48:57.248Z,5.20
2024-01-15T15:51:01.433Z,4.67
2024-01-15T15:53:04.769Z,5.93
2024-01-15T15:55:09.323Z,5.43
2024-01-15T15:57:12.735Z,6.00
2024-01-15T15:59:15.447Z,4.77
2024-01-15T16:01:18.373Z,6.30
2024-01-15T16:03:21.139Z,6.23
2024-01-15T16:05:34.444Z,5.80
2024-01-15T16:07:44.641Z,5.43
2024-01-15T16:09:47.766Z,5.47
2024-01-15T16:11:51.050Z,6.10
2024-01-15T16:13:56.455Z,5.80
2024-01-15T16:23:08.948Z,6.13
2024-01-15T16:23:20.653Z,5.13
2024-01-15T16:23:32.532Z,5.23
2024-01-15T16:23:57.284Z,5.23
2024-01-15T16:25:31.969Z,5.83
2024-01-15T16:27:35.263Z,5.87
2024-01-15T16:29:37.850Z,4.73
2024-01-15T16:31:40.824Z,5.57
2024-01-15T16:33:45.388Z,5.07
2024-01-15T16:35:50.490Z,5.00
2024-01-15T16:37:53.940Z,5.47
2024-01-15T16:39:56.885Z,5.80
2024-01-15T16:41:59.995Z,5.63
2024-01-15T16:44:03.822Z,6.23
2024-01-15T16:46:06.438Z,5.30
2024-01-15T16:48:09.608Z,5.27
2024-01-15T16:50:12.501Z,5.20
2024-01-15T16:52:15.353Z,5.00
2024-01-15T16:54:18.381Z,5.33
2024-01-15T16:56:21.849Z,6.20
2024-01-15T16:58:24.498Z,5.93
2024-01-15T17:00:27.365Z,5.73
2024-01-15T17:02:30.262Z,6.33
2024-01-15T17:04:33.266Z,5.17
2024-01-15T17:06:35.582Z,5.67
2024-01-15T17:08:38.603Z,6.20
2024-01-15T17:10:41.909Z,5.13
2024-01-15T17:12:44.937Z,5.67
2024-01-15T17:14:47.601Z,5.70
2024-01-15T17:16:50.847Z,5.80
2024-01-15T17:18:53.557Z,5.87
2024-01-15T17:20:56.842Z,4.90
2024-01-15T17:22:59.629Z,5.40
2024-01-15T17:25:02.754Z,5.27
2024-01-15T17:27:05.389Z,4.80
2024-01-15T17:29:08.307Z,4.60
2024-01-15T17:31:11.248Z,5.90
2024-01-15T17:33:15.127Z,6.00
2024-01-15T17:35:18.151Z,5.57
2024-01-15T17:37:21.054Z,5.77
2024-01-15T17:39:23.707Z,4.57
2024-01-15T17:41:26.615Z,5.93
2024-01-15T17:43:29.377Z,4.40
2024-01-15T17:45:32.338Z,5.43
2024-01-15T17:47:35.005Z,4.97
2024-01-15T17:49:38.651Z,4.97
2024-01-15T17:51:41.230Z,5.93
2024-01-15T17:53:44.610Z,5.60
2024-01-15T17:55:47.301Z,4.93
2024-01-15T17:57:50.536Z,5.93
2024-01-15T17:59:53.211Z,5.20
2024-01-15T18:01:56.271Z,4.57
2024-01-15T18:04:00.846Z,5.97
2024-01-15T18:06:03.956Z,5.03
2024-01-15T18:08:06.703Z,5.27
2024-01-15T18:10:11.078Z,5.53
2024-01-15T18:12:13.594Z,5.87
2024-01-15T18:14:16.845Z,5.60
2024-01-15T18:16:24.056Z,5.87
2024-01-15T18:18:27.486Z,5.90
2024-01-15T18:20:30.597Z,6.37
2024-01-15T18:22:33.643Z,5.33
2024-01-15T18:24:36.796Z,5.10
2024-01-15T18:26:41.139Z,4.93
2024-01-15T18:28:43.775Z,5.87
2024-01-15T18:30:46.607Z,5.47
2024-01-15T18:32:49.380Z,5.10
2024-01-15T18:34:52.501Z,4.37
2024-01-15T18:36:55.323Z,5.77
2024-01-15T18:39:00.083Z,4.50
2024-01-15T18:41:05.262Z,5.23
2024-01-15T18:43:08.565Z,5.27
2024-01-15T18:45:11.596Z,6.23
2024-01-15T18:47:16.503Z,5.43
2024-01-15T18:49:20.899Z,4.43
2024-01-15T18:51:24.647Z,4.57
2024-01-15T18:53:27.333Z,4.80
2024-01-15T18:55:29.761Z,4.50
2024-01-15T18:57:32.417Z,4.47
2024-01-15T18:59:38.410Z,5.37
2024-01-15T19:01:41.129Z,4.77
2024-01-15T19:03:44.873Z,5.10
2024-01-15T19:05:47.606Z,6.23
2024-01-15T19:07:50.545Z,5.73
2024-01-15T19:09:53.148Z,6.07
2024-01-15T19:11:56.230Z,4.87
2024-01-15T19:13:59.162Z,5.47
2024-01-15T19:16:02.163Z,5.67
2024-01-15T19:18:05.058Z,4.43
2024-01-15T19:20:11.148Z,5.77
2024-01-15T19:22:14.331Z,5.37
2024-01-15T19:24:17.278Z,4.97
2024-01-15T19:26:21.073Z,6.13
2024-01-15T19:28:23.966Z,4.90
2024-01-15T19:30:26.631Z,5.60
2024-01-15T19:32:29.625Z,4.97
2024-01-15T19:34:32.393Z,6.13
2024-01-15T19:36:35.447Z,4.70
2024-01-15T19:38:38.137Z,4.97
2024-01-15T19:40:41.147Z,5.10
2024-01-15T19:42:43.760Z,4.73
2024-01-15T19:44:46.694Z,4.53
2024-01-15T19:46:49.340Z,4.40
2024-01-15T19:48:52.381Z,5.17
2024-01-15T19:50:55.776Z,5.53
2024-01-15T19:52:58.654Z,5.07
2024-01-15T19:55:01.218Z,4.50
2024-01-15T19:57:04.640Z,5.60
2024-01-15T19:59:07.481Z,4.53
2024-01-15T20:01:10.527Z,5.07
2024-01-15T20:03:13.091Z,4.50
2024-01-15T20:05:17.363Z,5.70
2024-01-15T20:07:20.115Z,4.63
2024-01-15T20:09:25.064Z,4.63
2024-01-15T20:11:27.992Z,4.53
2024-01-15T20:13:31.035Z,4.40
2024-01-15T20:15:36.282Z,5.40
2024-01-15T20:17:39.326Z,4.30
2024-01-15T20:19:42.210Z,4.70
2024-01-15T20:21:46.086Z,4.30
2024-01-15T20:23:55.311Z,4.70
2024-01-15T20:26:03.609Z,4.23
2024-01-15T20:28:07.856Z,4.10
2024-01-15T20:30:11.152Z,4.23
2024-01-15T20:32:15.517Z,4.10
2024-01-15T20:34:18.671Z,4.57
2024-01-15T20:36:21.423Z,4.83
2024-01-15T20:38:24.457Z,4.07
2024-01-15T20:40:27.146Z,4.70
2024-01-15T20:42:30.535Z,3.83
2024-01-15T20:44:33.186Z,4.77
2024-01-15T20:46:36.064Z,4.83
2024-01-15T20:48:38.834Z,5.10
2024-01-15T20:50:42.053Z,4.37
2024-01-15T20:52:44.748Z,5.50
2024-01-15T20:54:47.628Z,5.00
2024-01-15T20:56:50.254Z,3.90
2024-01-15T20:58:53.212Z,4.60
2024-01-15T21:00:56.589Z,5.40
2024-01-15T21:02:59.939Z,3.90
2024-01-15T21:05:03.464Z,4.50
2024-01-15T21:07:08.578Z,5.00
2024-01-15T21:09:10.779Z,4.00
2024-01-15T21:11:15.273Z,4.07
2024-01-15T21:13:18.470Z,3.80
2024-01-15T21:15:21.373Z,4.47
2024-01-15T21:17:24.743Z,4.50
2024-01-15T21:19:27.855Z,4.47
2024-01-15T21:21:30.526Z,3.97
2024-01-15T21:23:33.767Z,3.43
2024-01-15T21:25:36.457Z,4.60
2024-01-15T21:27:42.689Z,4.13
2024-01-15T21:29:45.298Z,4.33
2024-01-15T21:31:48.213Z,4.50
2024-01-15T21:33:50.948Z,3.93
2024-01-15T21:35:54.025Z,4.83
2024-01-15T21:37:56.625Z,4.57
2024-01-15T21:39:59.456Z,4.57
2024-01-15T21:42:02.002Z,4.30
2024-01-15T21:44:07.786Z,3.83
2024-01-15T21:46:10.435Z,4.90
2024-01-15T21:48:13.722Z,4.37
2024-01-15T21:50:16.500Z,4.87
2024-01-15T21:52:19.455Z,4.57
2024-01-15T21:54:22.039Z,4.43
2024-01-15T21:56:25.258Z,4.70
2024-01-15T21:58:27.918Z,4.63
2024-01-15T22:00:30.841Z,4.40
2024-01-15T22:02:37.429Z,4.27
2024-01-15T22:04:40.456Z,4.03
2024-01-15T22:06:43.031Z,3.70
2024-01-15T22:08:50.124Z,4.17
2024-01-15T22:10:52.969Z,4.87
2024-01-15T22:12:55.450Z,3.77
2024-01-15T22:14:58.122Z,4.33
2024-01-15T22:17:01.008Z,4.17
2024-01-15T22:19:03.983Z,5.23
2024-01-15T22:21:07.179Z,4.10
2024-01-15T22:23:10.598Z,4.03
2024-01-15T22:25:13.567Z,3.80
2024-01-15T22:27:16.222Z,4.37
2024-01-15T22:29:19.154Z,3.33
2024-01-15T22:31:21.769Z,4.63
2024-01-15T22:33:24.846Z,4.10
2024-01-15T22:35:27.575Z,3.50
2024-01-15T22:37:30.323Z,3.50
2024-01-15T22:39:32.708Z,3.17
2024-01-15T22:41:35.623Z,3.83
2024-01-15T22:43:37.917Z,4.43
2024-01-15T22:45:41.002Z,3.07
2024-01-15T22:47:43.678Z,2.70
2024-01-15T22:49:46.609Z,3.03
2024-01-15T22:51:49.328Z,2.73
2024-01-15T22:53:54.775Z,2.77
2024-01-15T22:55:57.900Z,1.90
2024-01-15T22:58:01.089Z,2.23
2024-01-15T23:00:04.361Z,2.30
2024-01-15T23:02:07.966Z,2.70
2024-01-15T23:04:11.022Z,2.33
2024-01-15T23:06:23.215Z,1.77
2024-01-15T23:08:25.501Z,1.70
2024-01-15T23:10:28.453Z,2.07
2024-01-15T23:12:31.833Z,1.20
2024-01-15T23:14:36.585Z,1.30
2024-01-15T23:16:43.454Z,1.00
2024-01-15T23:18:47.924Z,1.00
2024-01-15T23:20:52.243Z,0.90
2024-01-15T23:22:56.408Z,1.30
2024-01-15T23:24:59.004Z,0.93
2024-01-15T23:27:01.877Z,1.03
2024-01-15T23:29:06.137Z,1.30
2024-01-15T23:31:08.973Z,1.17
2024-01-15T23:33:11.976Z,1.07
2024-01-15T23:35:15.155Z,1.07
2024-01-15T23:37:17.752Z,1.33
2024-01-15T23:39:20.529Z,1.00
2024-01-15T23:41:23.189Z,0.80
2024-01-15T23:43:26.221Z,0.87
2024-01-15T23:45:28.883Z,1.20
2024-01-15T23:47:32.019Z,0.90
2024-01-15T23:49:34.689Z,1.90
2024-01-15T23:51:38.215Z,1.43
2024-01-15T23:53:40.860Z,1.00
2024-01-15T23:55:46.003Z,1.40
2024-01-15T23:57:51.222Z,1.00
2024-01-15T23:59:54.115Z,0.53
